Time,TemperatureF,DewpointF,PressureIn,WindDirection,WindDirectionDegrees,WindSpeedMPH,WindSpeedGustMPH,Humidity,HourlyPrecipIn,Conditions,Clouds,dailyrainin,SoftwareType,DateUTC
2013-11-02 00:04:00,37.4,35.8,29.79,NNE,32,0.0,2.0,94,0.00,,,0.00,VWS V12.07,2013-11-02 05:04:00,
2013-11-02 00:09:00,37.3,35.5,29.79,NNE,26,0.0,2.0,93,0.00,,,0.00,VWS V12.07,2013-11-02 05:09:00,
2013-11-02 00:14:00,37.1,35.3,29.79,NNE,26,0.0,2.0,93,0.00,,,0.00,VWS V12.07,2013-11-02 05:14:00,
2013-11-02 00:19:00,37.1,35.3,29.80,NNE,26,0.0,2.0,93,0.00,,,0.00,VWS V12.07,2013-11-02 05:19:00,
2013-11-02 00:24:00,37.0,35.2,29.80,NNE,26,0.0,2.0,93,0.00,,,0.00,VWS V12.07,2013-11-02 05:24:00,
2013-11-02 00:29:00,37.0,35.2,29.80,NNE,26,0.0,2.0,93,0.00,,,0.00,VWS V12.07,2013-11-02 05:29:00,
2013-11-02 00:34:00,36.9,35.1,29.80,NNE,26,0.0,0.0,93,0.00,,,0.00,VWS V12.07,2013-11-02 05:34:00,
2013-11-02 00:39:00,36.9,35.1,29.80,NNE,26,0.0,0.0,93,0.00,,,0.00,VWS V12.07,2013-11-02 05:39:00,
2013-11-02 00:44:00,36.8,35.0,29.81,NNE,26,0.0,0.0,93,0.00,,,0.00,VWS V12.07,2013-11-02 05:44:00,
2013-11-02 00:49:00,36.8,35.2,29.81,NNE,26,0.0,0.0,94,0.00,,,0.00,VWS V12.07,2013-11-02 05:49:00,
2013-11-02 00:59:00,36.8,35.2,29.81,NNE,26,0.0,0.0,94,0.00,,,0.00,VWS V12.07,2013-11-02 05:59:00,
2013-11-02 01:04:00,36.8,35.2,29.81,NNE,26,0.0,0.0,94,0.00,,,0.00,VWS V12.07,2013-11-02 06:04:00,
2013-11-02 01:09:00,36.8,35.2,29.82,NNE,26,0.0,0.0,94,0.00,,,0.00,VWS V12.07,2013-11-02 06:09:00,
2013-11-02 01:19:00,36.8,35.2,29.82,NNE,26,0.0,0.0,94,0.00,,,0.00,VWS V12.07,2013-11-02 06:19:00,
2013-11-02 01:24:00,36.8,35.2,29.82,NNE,26,0.0,0.0,94,0.00,,,0.00,VWS V12.07,2013-11-02 06:24:00,
2013-11-02 01:34:00,36.8,35.2,29.82,NNE,26,0.0,0.0,94,0.00,,,0.00,VWS V12.07,2013-11-02 06:34:00,
2013-11-02 01:39:00,36.8,35.2,29.82,NNE,26,0.0,0.0,94,0.00,,,0.00,VWS V12.07,2013-11-02 06:39:00,
2013-11-02 01:44:00,36.8,35.2,29.83,NNE,26,0.0,0.0,94,0.00,,,0.00,VWS V12.07,2013-11-02 06:44:00,
2013-11-02 01:49:00,36.8,35.2,29.83,NNE,26,0.0,0.0,94,0.00,,,0.00,VWS V12.07,2013-11-02 06:49:00,
2013-11-02 01:54:00,36.9,35.3,29.83,NNE,26,0.0,0.0,94,0.00,,,0.00,VWS V12.07,2013-11-02 06:54:00,
2013-11-02 01:59:00,36.9,35.3,29.83,NNE,26,0.0,0.0,94,0.00,,,0.00,VWS V12.07,2013-11-02 06:59:00,
2013-11-02 02:04:00,36.9,35.3,29.83,NNE,26,0.0,0.0,94,0.00,,,0.00,VWS V12.07,2013-11-02 07:04:00,
2013-11-02 02:09:00,36.9,35.3,29.84,NNE,26,0.0,0.0,94,0.00,,,0.00,VWS V12.07,2013-11-02 07:09:00,
2013-11-02 02:14:00,37.0,35.4,29.84,NNE,26,1.0,1.0,94,0.00,,,0.00,VWS V12.07,2013-11-02 07:14:00,
2013-11-02 02:19:00,37.0,35.4,29.84,WSW,250,0.0,2.0,94,0.00,,,0.00,VWS V12.07,2013-11-02 07:19:00,
2013-11-02 02:24:00,37.0,35.4,29.84,WSW,251,0.0,2.0,94,0.00,,,0.00,VWS V12.07,2013-11-02 07:24:00,
2013-11-02 02:29:00,36.9,35.3,29.84,WSW,251,0.0,2.0,94,0.00,,,0.00,VWS V12.07,2013-11-02 07:29:00,
2013-11-02 02:34:00,36.8,35.2,29.84,WSW,252,0.0,0.0,94,0.00,,,0.00,VWS V12.07,2013-11-02 07:34:00,
2013-11-02 02:39:00,36.6,35.0,29.84,WSW,252,0.0,1.0,94,0.00,,,0.00,VWS V12.07,2013-11-02 07:39:00,
2013-11-02 02:44:00,36.5,34.9,29.85,WSW,252,0.0,3.0,94,0.00,,,0.00,VWS V12.07,2013-11-02 07:44:00,
2013-11-02 02:49:00,36.4,34.8,29.85,WSW,252,0.0,3.0,94,0.00,,,0.00,VWS V12.07,2013-11-02 07:49:00,
2013-11-02 02:54:00,36.4,34.8,29.85,WSW,252,0.0,3.0,94,0.00,,,0.00,VWS V12.07,2013-11-02 07:54:00,
2013-11-02 02:59:00,36.4,34.8,29.85,WSW,252,0.0,3.0,94,0.00,,,0.00,VWS V12.07,2013-11-02 07:59:00,
2013-11-02 03:09:00,36.2,34.6,29.85,West,268,0.0,1.0,94,0.00,,,0.00,VWS V12.07,2013-11-02 08:09:00,
2013-11-02 03:14:00,36.2,34.6,29.85,West,268,0.0,1.0,94,0.00,,,0.00,VWS V12.07,2013-11-02 08:14:00,
2013-11-02 03:19:00,36.2,34.6,29.86,West,268,1.0,1.0,94,0.00,,,0.00,VWS V12.07,2013-11-02 08:19:00,
2013-11-02 03:24:00,36.1,34.5,29.85,West,268,0.0,1.0,94,0.00,,,0.00,VWS V12.07,2013-11-02 08:24:00,
2013-11-02 03:29:00,36.0,34.4,29.85,WNW,303,0.0,1.0,94,0.01,,,0.01,VWS V12.07,2013-11-02 08:29:00,
2013-11-02 03:39:00,35.2,33.7,29.85,WNW,303,0.0,1.0,94,0.01,,,0.01,VWS V12.07,2013-11-02 08:39:00,
2013-11-02 03:49:00,34.9,33.3,29.85,WNW,303,0.0,1.0,94,0.01,,,0.01,VWS V12.07,2013-11-02 08:49:00,
2013-11-02 03:54:00,34.8,33.2,29.85,WNW,303,0.0,1.0,94,0.01,,,0.01,VWS V12.07,2013-11-02 08:54:00,
2013-11-02 04:04:00,35.1,33.5,29.86,WNW,303,0.0,0.0,94,0.01,,,0.01,VWS V12.07,2013-11-02 09:04:00,
2013-11-02 04:09:00,35.1,33.5,29.86,WNW,303,0.0,0.0,94,0.01,,,0.01,VWS V12.07,2013-11-02 09:09:00,
2013-11-02 04:14:00,35.2,33.7,29.87,WNW,303,0.0,0.0,94,0.01,,,0.01,VWS V12.07,2013-11-02 09:14:00,
2013-11-02 04:24:00,35.1,33.5,29.87,WNW,303,0.0,0.0,94,0.01,,,0.01,VWS V12.07,2013-11-02 09:24:00,
2013-11-02 04:34:00,35.1,33.5,29.87,WNW,303,0.0,0.0,94,0.00,,,0.01,VWS V12.07,2013-11-02 09:34:00,
2013-11-02 04:39:00,35.2,33.7,29.87,WNW,303,0.0,0.0,94,0.00,,,0.01,VWS V12.07,2013-11-02 09:39:00,
2013-11-02 04:44:00,35.2,33.7,29.87,WNW,303,0.0,0.0,94,0.00,,,0.01,VWS V12.07,2013-11-02 09:44:00,
2013-11-02 04:49:00,35.3,33.8,29.88,WNW,303,0.0,0.0,94,0.00,,,0.01,VWS V12.07,2013-11-02 09:49:00,
2013-11-02 04:54:00,35.3,33.8,29.88,WNW,303,0.0,0.0,94,0.00,,,0.01,VWS V12.07,2013-11-02 09:54:00,
2013-11-02 04:59:00,35.4,33.8,29.88,WNW,303,0.0,0.0,94,0.00,,,0.01,VWS V12.07,2013-11-02 09:59:00,
2013-11-02 05:09:00,35.5,34.0,29.89,WNW,303,0.0,0.0,94,0.00,,,0.01,VWS V12.07,2013-11-02 10:09:00,
2013-11-02 05:14:00,35.6,34.0,29.89,WNW,303,0.0,0.0,94,0.00,,,0.01,VWS V12.07,2013-11-02 10:14:00,
2013-11-02 05:19:00,35.6,34.0,29.89,WNW,303,0.0,0.0,94,0.00,,,0.01,VWS V12.07,2013-11-02 10:19:00,
2013-11-02 05:24:00,35.8,34.2,29.89,WNW,303,0.0,0.0,94,0.00,,,0.01,VWS V12.07,2013-11-02 10:24:00,
2013-11-02 05:29:00,35.9,34.6,29.90,ENE,63,2.0,3.0,95,0.00,,,0.01,VWS V12.07,2013-11-02 10:29:00,
2013-11-02 05:34:00,35.8,34.2,29.90,NNE,32,0.0,2.0,94,0.00,,,0.01,VWS V12.07,2013-11-02 10:34:00,
2013-11-02 05:39:00,35.6,34.0,29.90,NNE,32,0.0,2.0,94,0.00,,,0.01,VWS V12.07,2013-11-02 10:39:00,
2013-11-02 05:44:00,35.3,33.8,29.91,NE,39,3.0,3.0,94,0.00,,,0.01,VWS V12.07,2013-11-02 10:44:00,
2013-11-02 05:49:00,35.0,33.5,29.91,NE,35,0.0,3.0,94,0.00,,,0.01,VWS V12.07,2013-11-02 10:49:00,
2013-11-02 05:54:00,34.8,33.2,29.91,NNE,25,2.0,3.0,94,0.00,,,0.01,VWS V12.07,2013-11-02 10:54:00,
2013-11-02 05:59:00,34.6,33.0,29.92,NNE,24,0.0,3.0,94,0.00,,,0.01,VWS V12.07,2013-11-02 10:59:00,
2013-11-02 06:04:00,34.4,32.9,29.92,NNE,26,0.0,1.0,94,0.00,,,0.01,VWS V12.07,2013-11-02 11:04:00,
2013-11-02 06:09:00,34.4,32.9,29.92,NNE,26,0.0,1.0,94,0.00,,,0.01,VWS V12.07,2013-11-02 11:09:00,
2013-11-02 06:14:00,34.2,32.7,29.92,NNE,26,0.0,1.0,94,0.00,,,0.01,VWS V12.07,2013-11-02 11:14:00,
2013-11-02 06:19:00,34.0,32.2,29.92,NNE,26,0.0,1.0,93,0.00,,,0.01,VWS V12.07,2013-11-02 11:19:00,
2013-11-02 06:29:00,33.8,32.3,29.92,NNE,26,0.0,1.0,94,0.00,,,0.01,VWS V12.07,2013-11-02 11:29:00,
2013-11-02 06:34:00,33.7,32.2,29.92,NNE,25,0.0,0.0,94,0.00,,,0.01,VWS V12.07,2013-11-02 11:34:00,
2013-11-02 06:39:00,33.7,32.2,29.92,NNE,25,0.0,0.0,94,0.00,,,0.01,VWS V12.07,2013-11-02 11:39:00,
2013-11-02 06:44:00,33.6,32.1,29.93,NNE,26,0.0,0.0,94,0.00,,,0.01,VWS V12.07,2013-11-02 11:44:00,
2013-11-02 06:54:00,33.7,32.2,29.93,NNE,26,0.0,0.0,94,0.00,,,0.01,VWS V12.07,2013-11-02 11:54:00,
2013-11-02 06:59:00,33.7,32.2,29.93,NNE,26,0.0,0.0,94,0.00,,,0.01,VWS V12.07,2013-11-02 11:59:00,
2013-11-02 07:04:00,33.7,32.2,29.93,NNE,26,0.0,0.0,94,0.00,,,0.01,VWS V12.07,2013-11-02 12:04:00,
2013-11-02 07:14:00,33.7,32.2,29.94,NNE,26,0.0,0.0,94,0.00,,,0.01,VWS V12.07,2013-11-02 12:14:00,
2013-11-02 07:19:00,33.8,32.3,29.94,NNE,25,0.0,0.0,94,0.00,,,0.01,VWS V12.07,2013-11-02 12:19:00,
2013-11-02 07:29:00,33.8,32.3,29.94,NNE,26,0.0,0.0,94,0.00,,,0.01,VWS V12.07,2013-11-02 12:29:00,
2013-11-02 07:34:00,33.7,32.2,29.94,NNE,25,0.0,0.0,94,0.00,,,0.01,VWS V12.07,2013-11-02 12:34:00,
2013-11-02 07:39:00,33.7,32.2,29.94,NNE,26,0.0,0.0,94,0.00,,,0.01,VWS V12.07,2013-11-02 12:39:00,
2013-11-02 07:44:00,33.7,32.2,29.95,NNE,26,0.0,0.0,94,0.00,,,0.01,VWS V12.07,2013-11-02 12:44:00,
2013-11-02 07:49:00,33.8,32.3,29.95,NNE,26,0.0,0.0,94,0.00,,,0.01,VWS V12.07,2013-11-02 12:49:00,
2013-11-02 07:54:00,33.8,32.3,29.95,NNE,26,0.0,0.0,94,0.00,,,0.01,VWS V12.07,2013-11-02 12:54:00,
2013-11-02 07:59:00,33.8,32.3,29.95,NNE,25,0.0,0.0,94,0.00,,,0.01,VWS V12.07,2013-11-02 12:59:00,
2013-11-02 08:04:00,33.8,32.3,29.95,NNE,26,0.0,0.0,94,0.00,,,0.01,VWS V12.07,2013-11-02 13:04:00,
2013-11-02 08:09:00,33.8,32.3,29.96,NNE,18,0.0,0.0,94,0.00,,,0.01,VWS V12.07,2013-11-02 13:09:00,
2013-11-02 08:19:00,33.9,32.4,29.96,NNE,18,0.0,0.0,94,0.00,,,0.01,VWS V12.07,2013-11-02 13:19:00,
2013-11-02 08:24:00,34.0,32.5,29.97,NNE,18,0.0,0.0,94,0.00,,,0.01,VWS V12.07,2013-11-02 13:24:00,
2013-11-02 08:29:00,34.1,32.6,29.97,NNE,18,0.0,0.0,94,0.00,,,0.01,VWS V12.07,2013-11-02 13:29:00,
2013-11-02 08:34:00,34.1,32.6,29.97,NNE,18,0.0,0.0,94,0.00,,,0.01,VWS V12.07,2013-11-02 13:34:00,
2013-11-02 08:39:00,34.1,32.8,29.97,NNE,18,0.0,0.0,95,0.00,,,0.01,VWS V12.07,2013-11-02 13:39:00,
2013-11-02 08:44:00,34.2,32.9,29.98,NNE,13,0.0,1.0,95,0.00,,,0.01,VWS V12.07,2013-11-02 13:44:00,
2013-11-02 08:49:00,34.3,33.0,29.98,North,360,0.0,1.0,95,0.00,,,0.01,VWS V12.07,2013-11-02 13:49:00,
2013-11-02 08:54:00,34.4,33.1,29.98,North,5,0.0,1.0,95,0.00,,,0.01,VWS V12.07,2013-11-02 13:54:00,
2013-11-02 08:59:00,34.4,33.1,29.98,North,5,0.0,1.0,95,0.00,,,0.01,VWS V12.07,2013-11-02 13:59:00,
2013-11-02 09:09:00,34.5,33.2,29.98,North,360,0.0,1.0,95,0.00,,,0.01,VWS V12.07,2013-11-02 14:09:00,
2013-11-02 09:14:00,34.7,33.2,29.98,North,5,0.0,1.0,94,0.00,,,0.01,VWS V12.07,2013-11-02 14:14:00,
2013-11-02 09:19:00,34.8,33.5,29.98,West,265,0.0,1.0,95,0.00,,,0.01,VWS V12.07,2013-11-02 14:19:00,
2013-11-02 09:24:00,35.0,33.7,29.99,West,265,0.0,1.0,95,0.00,,,0.01,VWS V12.07,2013-11-02 14:24:00,
2013-11-02 09:34:00,35.5,34.2,29.99,West,266,0.0,0.0,95,0.00,,,0.01,VWS V12.07,2013-11-02 14:34:00,
2013-11-02 09:39:00,35.7,34.4,30.00,West,266,0.0,0.0,95,0.00,,,0.01,VWS V12.07,2013-11-02 14:39:00,
2013-11-02 09:44:00,35.9,34.6,30.00,West,266,0.0,1.0,95,0.00,,,0.01,VWS V12.07,2013-11-02 14:44:00,
2013-11-02 09:49:00,35.9,34.6,30.00,West,266,0.0,1.0,95,0.00,,,0.01,VWS V12.07,2013-11-02 14:49:00,
2013-11-02 09:54:00,36.1,34.8,30.00,WNW,285,0.0,3.0,95,0.00,,,0.01,VWS V12.07,2013-11-02 14:54:00,
2013-11-02 09:59:00,36.2,34.9,30.01,WNW,285,0.0,3.0,95,0.00,,,0.01,VWS V12.07,2013-11-02 14:59:00,
2013-11-02 10:04:00,36.2,34.6,30.01,WNW,284,0.0,0.0,94,0.00,,,0.01,VWS V12.07,2013-11-02 15:04:00,
2013-11-02 10:09:00,36.2,34.6,30.01,WNW,285,0.0,0.0,94,0.00,,,0.01,VWS V12.07,2013-11-02 15:09:00,
2013-11-02 10:14:00,36.4,34.8,30.01,WNW,285,0.0,1.0,94,0.00,,,0.01,VWS V12.07,2013-11-02 15:14:00,
2013-11-02 10:24:00,36.3,34.7,30.01,NNE,20,0.0,3.0,94,0.00,,,0.01,VWS V12.07,2013-11-02 15:24:00,
2013-11-02 10:29:00,36.4,34.6,30.01,NNE,20,0.0,3.0,93,0.00,,,0.01,VWS V12.07,2013-11-02 15:29:00,
2013-11-02 10:34:00,36.5,34.7,30.01,NNE,20,1.0,1.0,93,0.00,,,0.01,VWS V12.07,2013-11-02 15:34:00,
2013-11-02 10:39:00,36.6,34.8,30.01,NNE,19,0.0,1.0,93,0.00,,,0.01,VWS V12.07,2013-11-02 15:39:00,
2013-11-02 10:44:00,36.9,35.1,30.01,NNE,19,0.0,1.0,93,0.00,,,0.01,VWS V12.07,2013-11-02 15:44:00,
2013-11-02 10:49:00,37.2,35.4,30.01,NNE,20,0.0,1.0,93,0.00,,,0.01,VWS V12.07,2013-11-02 15:49:00,
2013-11-02 10:54:00,37.3,35.5,30.02,NNW,343,0.0,3.0,93,0.00,,,0.01,VWS V12.07,2013-11-02 15:54:00,
2013-11-02 10:59:00,37.5,35.4,30.02,NNW,342,0.0,3.0,92,0.00,,,0.01,VWS V12.07,2013-11-02 15:59:00,
2013-11-02 11:04:00,37.5,35.1,30.02,NW,323,0.0,1.0,91,0.00,,,0.01,VWS V12.07,2013-11-02 16:04:00,
2013-11-02 11:09:00,37.3,34.6,30.02,NNE,30,0.0,2.0,90,0.00,,,0.01,VWS V12.07,2013-11-02 16:09:00,
2013-11-02 11:14:00,37.3,34.6,30.02,NNE,30,0.0,2.0,90,0.00,,,0.01,VWS V12.07,2013-11-02 16:14:00,
2013-11-02 11:19:00,37.3,34.6,30.02,NNE,30,0.0,2.0,90,0.00,,,0.01,VWS V12.07,2013-11-02 16:19:00,
2013-11-02 11:24:00,37.4,34.7,30.03,NNE,30,0.0,2.0,90,0.00,,,0.01,VWS V12.07,2013-11-02 16:24:00,
2013-11-02 11:29:00,37.6,34.9,30.03,NNE,30,0.0,2.0,90,0.00,,,0.01,VWS V12.07,2013-11-02 16:29:00,
2013-11-02 11:34:00,37.6,34.7,30.03,NNE,30,2.0,3.0,89,0.00,,,0.01,VWS V12.07,2013-11-02 16:34:00,
2013-11-02 11:39:00,37.5,34.6,30.03,North,10,3.0,3.0,89,0.00,,,0.01,VWS V12.07,2013-11-02 16:39:00,
2013-11-02 11:44:00,37.1,34.2,30.04,ENE,57,1.0,4.0,89,0.00,,,0.01,VWS V12.07,2013-11-02 16:44:00,
2013-11-02 11:54:00,36.4,34.0,30.04,NE,55,0.0,4.0,91,0.00,,,0.01,VWS V12.07,2013-11-02 16:54:00,
2013-11-02 12:04:00,36.4,34.3,30.04,NE,55,0.0,0.0,92,0.00,,,0.01,VWS V12.07,2013-11-02 17:04:00,
2013-11-02 12:14:00,36.8,34.7,30.05,NW,307,0.0,1.0,92,0.00,,,0.01,VWS V12.07,2013-11-02 17:14:00,
2013-11-02 12:19:00,37.0,34.9,30.05,NW,308,0.0,1.0,92,0.00,,,0.01,VWS V12.07,2013-11-02 17:19:00,
2013-11-02 12:29:00,37.7,35.6,30.05,WSW,245,0.0,3.0,92,0.00,,,0.01,VWS V12.07,2013-11-02 17:29:00,
2013-11-02 12:34:00,37.7,35.6,30.06,WSW,245,0.0,0.0,92,0.00,,,0.01,VWS V12.07,2013-11-02 17:34:00,
2013-11-02 12:39:00,37.6,35.2,30.06,WSW,245,0.0,1.0,91,0.00,,,0.01,VWS V12.07,2013-11-02 17:39:00,
2013-11-02 12:44:00,37.6,35.2,30.06,WSW,245,0.0,2.0,91,0.00,,,0.01,VWS V12.07,2013-11-02 17:44:00,
2013-11-02 12:49:00,37.6,35.5,30.06,WSW,245,0.0,2.0,92,0.00,,,0.01,VWS V12.07,2013-11-02 17:49:00,
2013-11-02 12:59:00,37.7,35.6,30.06,WSW,245,0.0,2.0,92,0.00,,,0.01,VWS V12.07,2013-11-02 17:59:00,
2013-11-02 13:04:00,37.7,35.3,30.06,WSW,245,0.0,1.0,91,0.00,,,0.01,VWS V12.07,2013-11-02 18:04:00,
2013-11-02 13:09:00,37.9,35.8,30.06,WSW,245,0.0,1.0,92,0.00,,,0.01,VWS V12.07,2013-11-02 18:09:00,
2013-11-02 13:14:00,37.9,35.5,30.06,WSW,245,0.0,1.0,91,0.00,,,0.01,VWS V12.07,2013-11-02 18:14:00,
2013-11-02 13:19:00,38.0,35.6,30.06,WSW,245,0.0,1.0,91,0.00,,,0.01,VWS V12.07,2013-11-02 18:19:00,
2013-11-02 13:24:00,38.0,35.6,30.06,WSW,245,0.0,1.0,91,0.00,,,0.01,VWS V12.07,2013-11-02 18:24:00,
2013-11-02 13:34:00,37.9,35.2,30.06,NE,51,4.0,5.0,90,0.00,,,0.01,VWS V12.07,2013-11-02 18:34:00,
2013-11-02 13:44:00,36.6,34.0,30.06,NNE,25,0.0,5.0,90,0.00,,,0.01,VWS V12.07,2013-11-02 18:44:00,
2013-11-02 13:54:00,36.0,33.9,30.06,NNE,26,0.0,5.0,92,0.00,,,0.01,VWS V12.07,2013-11-02 18:54:00,
2013-11-02 13:59:00,35.9,33.8,30.07,NNE,26,0.0,5.0,92,0.00,,,0.01,VWS V12.07,2013-11-02 18:59:00,
2013-11-02 14:04:00,36.0,33.9,30.07,NW,314,0.0,0.0,92,0.00,,,0.01,VWS V12.07,2013-11-02 19:04:00,
2013-11-02 14:09:00,36.2,34.4,30.07,NW,310,0.0,2.0,93,0.00,,,0.01,VWS V12.07,2013-11-02 19:09:00,
2013-11-02 14:19:00,36.2,34.4,30.07,West,269,0.0,3.0,93,0.00,,,0.01,VWS V12.07,2013-11-02 19:19:00,
2013-11-02 14:24:00,36.1,34.3,30.07,West,268,2.0,3.0,93,0.00,,,0.01,VWS V12.07,2013-11-02 19:24:00,
2013-11-02 14:29:00,36.0,34.2,30.07,WNW,286,0.0,4.0,93,0.00,,,0.01,VWS V12.07,2013-11-02 19:29:00,
2013-11-02 14:34:00,36.1,34.3,30.07,WNW,284,0.0,1.0,93,0.00,,,0.01,VWS V12.07,2013-11-02 19:34:00,
2013-11-02 14:39:00,36.1,34.3,30.07,West,281,0.0,4.0,93,0.00,,,0.01,VWS V12.07,2013-11-02 19:39:00,
2013-11-02 14:44:00,36.2,34.4,30.07,West,280,0.0,4.0,93,0.00,,,0.01,VWS V12.07,2013-11-02 19:44:00,
2013-11-02 14:49:00,36.4,34.6,30.07,West,281,0.0,4.0,93,0.00,,,0.01,VWS V12.07,2013-11-02 19:49:00,
2013-11-02 14:54:00,36.5,34.7,30.07,West,281,0.0,4.0,93,0.00,,,0.01,VWS V12.07,2013-11-02 19:54:00,
2013-11-02 14:59:00,36.7,35.1,30.08,West,280,0.0,4.0,94,0.00,,,0.01,VWS V12.07,2013-11-02 19:59:00,
2013-11-02 15:04:00,36.8,35.0,30.08,West,281,0.0,0.0,93,0.00,,,0.01,VWS V12.07,2013-11-02 20:04:00,
2013-11-02 15:09:00,37.0,35.2,30.08,West,281,0.0,1.0,93,0.00,,,0.01,VWS V12.07,2013-11-02 20:09:00,
2013-11-02 15:19:00,37.4,35.6,30.08,West,281,2.0,2.0,93,0.00,,,0.01,VWS V12.07,2013-11-02 20:19:00,
2013-11-02 15:24:00,37.5,35.7,30.08,West,261,0.0,4.0,93,0.00,,,0.01,VWS V12.07,2013-11-02 20:24:00,
2013-11-02 15:29:00,37.6,35.8,30.08,West,269,0.0,4.0,93,0.00,,,0.01,VWS V12.07,2013-11-02 20:29:00,
2013-11-02 15:34:00,37.7,35.9,30.08,South,179,0.0,0.0,93,0.00,,,0.01,VWS V12.07,2013-11-02 20:34:00,
2013-11-02 15:39:00,37.8,36.0,30.08,South,179,0.0,0.0,93,0.00,,,0.01,VWS V12.07,2013-11-02 20:39:00,
2013-11-02 15:44:00,37.8,36.0,30.08,West,259,0.0,3.0,93,0.00,,,0.01,VWS V12.07,2013-11-02 20:44:00,
2013-11-02 15:49:00,37.7,35.6,30.09,West,259,0.0,3.0,92,0.00,,,0.01,VWS V12.07,2013-11-02 20:49:00,
2013-11-02 15:54:00,37.7,35.6,30.09,West,259,0.0,3.0,92,0.00,,,0.01,VWS V12.07,2013-11-02 20:54:00,
2013-11-02 15:59:00,37.8,35.7,30.09,West,259,0.0,3.0,92,0.00,,,0.01,VWS V12.07,2013-11-02 20:59:00,
2013-11-02 16:04:00,37.9,35.8,30.09,NNW,327,1.0,1.0,92,0.00,,,0.01,VWS V12.07,2013-11-02 21:04:00,
2013-11-02 16:09:00,37.9,35.5,30.09,NNW,328,0.0,2.0,91,0.00,,,0.01,VWS V12.07,2013-11-02 21:09:00,
2013-11-02 16:14:00,38.0,35.9,30.09,NNW,327,0.0,2.0,92,0.00,,,0.01,VWS V12.07,2013-11-02 21:14:00,
2013-11-02 16:19:00,38.1,36.0,30.09,NNW,328,0.0,2.0,92,0.00,,,0.01,VWS V12.07,2013-11-02 21:19:00,
2013-11-02 16:24:00,38.1,35.7,30.09,NNW,327,0.0,2.0,91,0.00,,,0.01,VWS V12.07,2013-11-02 21:24:00,
2013-11-02 16:29:00,38.0,35.6,30.09,NNW,329,0.0,2.0,91,0.00,,,0.01,VWS V12.07,2013-11-02 21:29:00,
2013-11-02 16:34:00,37.9,35.5,30.10,NNW,329,0.0,0.0,91,0.00,,,0.01,VWS V12.07,2013-11-02 21:34:00,
2013-11-02 16:39:00,37.9,35.5,30.10,NW,321,1.0,1.0,91,0.00,,,0.01,VWS V12.07,2013-11-02 21:39:00,
2013-11-02 16:44:00,37.8,35.4,30.10,NW,320,0.0,1.0,91,0.00,,,0.01,VWS V12.07,2013-11-02 21:44:00,
2013-11-02 16:54:00,37.5,35.1,30.11,NW,318,0.0,2.0,91,0.00,,,0.01,VWS V12.07,2013-11-02 21:54:00,
2013-11-02 16:59:00,37.3,34.6,30.11,NW,318,0.0,2.0,90,0.00,,,0.01,VWS V12.07,2013-11-02 21:59:00,
2013-11-02 17:04:00,37.2,34.8,30.11,NW,318,0.0,0.0,91,0.00,,,0.01,VWS V12.07,2013-11-02 22:04:00,
2013-11-02 17:14:00,36.9,34.5,30.12,West,278,0.0,3.0,91,0.00,,,0.01,VWS V12.07,2013-11-02 22:14:00,
2013-11-02 17:19:00,36.7,34.3,30.12,West,278,0.0,3.0,91,0.00,,,0.01,VWS V12.07,2013-11-02 22:19:00,
2013-11-02 17:29:00,36.5,34.1,30.12,West,278,0.0,3.0,91,0.00,,,0.01,VWS V12.07,2013-11-02 22:29:00,
2013-11-02 17:34:00,36.5,34.4,30.12,West,278,0.0,0.0,92,0.00,,,0.01,VWS V12.07,2013-11-02 22:34:00,
2013-11-02 17:44:00,36.4,34.3,30.12,West,278,0.0,0.0,92,0.00,,,0.01,VWS V12.07,2013-11-02 22:44:00,
2013-11-02 17:49:00,36.4,34.3,30.12,West,277,0.0,0.0,92,0.00,,,0.01,VWS V12.07,2013-11-02 22:49:00,
2013-11-02 17:54:00,36.3,34.2,30.12,West,278,0.0,0.0,92,0.00,,,0.01,VWS V12.07,2013-11-02 22:54:00,
2013-11-02 17:59:00,36.3,34.2,30.12,West,278,0.0,0.0,92,0.00,,,0.01,VWS V12.07,2013-11-02 22:59:00,
2013-11-02 18:09:00,36.2,34.4,30.12,West,277,0.0,0.0,93,0.00,,,0.01,VWS V12.07,2013-11-02 23:09:00,
2013-11-02 18:14:00,36.1,34.3,30.13,West,278,0.0,0.0,93,0.00,,,0.01,VWS V12.07,2013-11-02 23:14:00,
2013-11-02 18:24:00,36.0,34.2,30.13,West,277,0.0,0.0,93,0.00,,,0.01,VWS V12.07,2013-11-02 23:24:00,
2013-11-02 18:34:00,36.0,34.2,30.13,West,278,0.0,0.0,93,0.00,,,0.01,VWS V12.07,2013-11-02 23:34:00,
2013-11-02 18:39:00,35.9,34.1,30.13,West,278,0.0,0.0,93,0.00,,,0.01,VWS V12.07,2013-11-02 23:39:00,
2013-11-02 18:44:00,35.9,34.1,30.13,West,277,0.0,0.0,93,0.00,,,0.01,VWS V12.07,2013-11-02 23:44:00,
2013-11-02 18:49:00,35.9,34.1,30.14,West,278,0.0,0.0,93,0.00,,,0.01,VWS V12.07,2013-11-02 23:49:00,
2013-11-02 18:54:00,35.9,34.1,30.14,West,278,0.0,0.0,93,0.00,,,0.01,VWS V12.07,2013-11-02 23:54:00,
2013-11-02 18:59:00,35.8,34.0,30.14,West,277,0.0,0.0,93,0.00,,,0.01,VWS V12.07,2013-11-02 23:59:00,
2013-11-02 19:04:00,35.8,34.0,30.14,West,277,0.0,0.0,93,0.00,,,0.01,VWS V12.07,2013-11-03 00:04:00,
2013-11-02 19:14:00,35.7,33.9,30.15,West,278,0.0,0.0,93,0.00,,,0.01,VWS V12.07,2013-11-03 00:14:00,
2013-11-02 19:19:00,35.7,33.9,30.15,West,277,0.0,0.0,93,0.00,,,0.01,VWS V12.07,2013-11-03 00:19:00,
2013-11-02 19:24:00,35.6,33.8,30.15,West,277,0.0,0.0,93,0.00,,,0.01,VWS V12.07,2013-11-03 00:24:00,
2013-11-02 19:29:00,35.6,34.0,30.15,West,278,0.0,0.0,94,0.00,,,0.01,VWS V12.07,2013-11-03 00:29:00,
2013-11-02 19:34:00,35.6,34.0,30.15,West,277,0.0,0.0,94,0.00,,,0.01,VWS V12.07,2013-11-03 00:34:00,
2013-11-02 19:44:00,35.4,33.8,30.15,West,278,0.0,0.0,94,0.00,,,0.01,VWS V12.07,2013-11-03 00:44:00,
2013-11-02 19:49:00,35.3,33.8,30.16,West,278,0.0,0.0,94,0.00,,,0.01,VWS V12.07,2013-11-03 00:49:00,
2013-11-02 19:54:00,35.3,33.5,30.16,West,278,0.0,0.0,93,0.00,,,0.01,VWS V12.07,2013-11-03 00:54:00,
2013-11-02 19:59:00,35.2,33.4,30.16,West,277,0.0,0.0,93,0.00,,,0.01,VWS V12.07,2013-11-03 00:59:00,
2013-11-02 20:09:00,34.9,33.3,30.16,West,278,0.0,0.0,94,0.00,,,0.01,VWS V12.07,2013-11-03 01:09:00,
2013-11-02 20:14:00,34.7,33.2,30.16,West,277,0.0,0.0,94,0.00,,,0.01,VWS V12.07,2013-11-03 01:14:00,
2013-11-02 20:19:00,34.4,32.6,30.16,West,277,0.0,0.0,93,0.00,,,0.01,VWS V12.07,2013-11-03 01:19:00,
2013-11-02 20:24:00,34.4,32.6,30.16,West,278,0.0,0.0,93,0.00,,,0.01,VWS V12.07,2013-11-03 01:24:00,
2013-11-02 20:29:00,34.1,32.3,30.16,West,278,0.0,0.0,93,0.00,,,0.01,VWS V12.07,2013-11-03 01:29:00,
2013-11-02 20:34:00,33.7,31.9,30.16,West,277,0.0,0.0,93,0.00,,,0.01,VWS V12.07,2013-11-03 01:34:00,
2013-11-02 20:39:00,33.4,31.6,30.16,West,277,0.0,0.0,93,0.00,,,0.01,VWS V12.07,2013-11-03 01:39:00,
2013-11-02 20:44:00,33.2,31.4,30.16,West,278,0.0,0.0,93,0.00,,,0.01,VWS V12.07,2013-11-03 01:44:00,
2013-11-02 20:49:00,33.0,31.2,30.16,West,277,0.0,0.0,93,0.00,,,0.01,VWS V12.07,2013-11-03 01:49:00,
2013-11-02 20:54:00,33.0,31.5,30.17,West,277,0.0,0.0,94,0.00,,,0.01,VWS V12.07,2013-11-03 01:54:00,
2013-11-02 20:59:00,32.9,31.4,30.17,West,277,0.0,0.0,94,0.00,,,0.01,VWS V12.07,2013-11-03 01:59:00,
2013-11-02 21:09:00,32.6,31.1,30.16,West,277,0.0,0.0,94,0.00,,,0.01,VWS V12.07,2013-11-03 02:09:00,
2013-11-02 21:14:00,32.5,31.0,30.16,West,277,0.0,0.0,94,0.00,,,0.01,VWS V12.07,2013-11-03 02:14:00,
2013-11-02 21:19:00,32.3,30.8,30.17,West,278,0.0,0.0,94,0.00,,,0.01,VWS V12.07,2013-11-03 02:19:00,
2013-11-02 21:29:00,32.1,30.6,30.17,West,277,0.0,0.0,94,0.00,,,0.01,VWS V12.07,2013-11-03 02:29:00,
2013-11-02 21:34:00,32.0,30.5,30.17,West,278,0.0,0.0,94,0.00,,,0.01,VWS V12.07,2013-11-03 02:34:00,
2013-11-02 21:39:00,31.8,30.3,30.17,West,278,0.0,0.0,94,0.00,,,0.01,VWS V12.07,2013-11-03 02:39:00,
2013-11-02 21:44:00,31.7,30.2,30.18,West,278,0.0,0.0,94,0.00,,,0.01,VWS V12.07,2013-11-03 02:44:00,
2013-11-02 21:54:00,31.3,29.8,30.18,West,277,0.0,0.0,94,0.00,,,0.01,VWS V12.07,2013-11-03 02:54:00,
2013-11-02 21:59:00,31.2,29.7,30.18,West,278,0.0,0.0,94,0.00,,,0.01,VWS V12.07,2013-11-03 02:59:00,
2013-11-02 22:04:00,31.1,29.6,30.18,West,277,0.0,0.0,94,0.00,,,0.01,VWS V12.07,2013-11-03 03:04:00,
2013-11-02 22:14:00,31.0,29.5,30.19,West,278,0.0,0.0,94,0.00,,,0.01,VWS V12.07,2013-11-03 03:14:00,
2013-11-02 22:19:00,31.0,29.5,30.19,West,278,0.0,0.0,94,0.00,,,0.01,VWS V12.07,2013-11-03 03:19:00,
2013-11-02 22:24:00,30.9,29.4,30.19,West,277,0.0,0.0,94,0.00,,,0.01,VWS V12.07,2013-11-03 03:24:00,
2013-11-02 22:29:00,31.0,31.0,30.19,West,278,0.0,0.0,100,0.00,,,0.01,VWS V12.07,2013-11-03 03:29:00,
2013-11-02 22:34:00,31.0,29.5,30.19,West,277,0.0,0.0,94,0.00,,,0.01,VWS V12.07,2013-11-03 03:34:00,
2013-11-02 22:39:00,31.0,29.5,30.20,West,278,0.0,0.0,94,0.00,,,0.01,VWS V12.07,2013-11-03 03:39:00,
2013-11-02 22:44:00,31.0,29.5,30.20,West,277,0.0,0.0,94,0.00,,,0.01,VWS V12.07,2013-11-03 03:44:00,
2013-11-02 22:49:00,31.1,29.6,30.20,West,278,0.0,0.0,94,0.00,,,0.01,VWS V12.07,2013-11-03 03:49:00,
2013-11-02 22:54:00,31.3,29.8,30.20,West,278,0.0,0.0,94,0.00,,,0.01,VWS V12.07,2013-11-03 03:54:00,
2013-11-02 22:59:00,31.4,29.9,30.20,West,277,0.0,0.0,94,0.00,,,0.01,VWS V12.07,2013-11-03 03:59:00,
2013-11-02 23:04:00,31.5,30.0,30.20,West,277,0.0,0.0,94,0.00,,,0.01,VWS V12.07,2013-11-03 04:04:00,
2013-11-02 23:09:00,31.7,30.2,30.20,West,278,0.0,0.0,94,0.00,,,0.01,VWS V12.07,2013-11-03 04:09:00,
2013-11-02 23:14:00,31.8,30.3,30.20,West,278,0.0,0.0,94,0.00,,,0.01,VWS V12.07,2013-11-03 04:14:00,
2013-11-02 23:19:00,31.9,30.4,30.20,West,278,0.0,0.0,94,0.00,,,0.01,VWS V12.07,2013-11-03 04:19:00,
2013-11-02 23:24:00,32.0,30.5,30.20,West,278,0.0,0.0,94,0.00,,,0.01,VWS V12.07,2013-11-03 04:24:00,
2013-11-02 23:29:00,32.1,30.6,30.20,West,278,0.0,0.0,94,0.00,,,0.01,VWS V12.07,2013-11-03 04:29:00,
2013-11-02 23:34:00,32.2,30.7,30.20,West,278,0.0,0.0,94,0.00,,,0.01,VWS V12.07,2013-11-03 04:34:00,
2013-11-02 23:39:00,32.2,30.7,30.20,West,277,0.0,0.0,94,0.00,,,0.01,VWS V12.07,2013-11-03 04:39:00,
2013-11-02 23:44:00,32.3,30.8,30.20,West,278,0.0,0.0,94,0.00,,,0.01,VWS V12.07,2013-11-03 04:44:00,
2013-11-02 23:49:00,32.3,30.8,30.20,West,278,0.0,0.0,94,0.00,,,0.01,VWS V12.07,2013-11-03 04:49:00,
2013-11-02 23:59:00,32.4,30.9,30.20,West,278,0.0,0.0,94,0.00,,,0.01,VWS V12.07,2013-11-03 04:59:00,